WETTERDATEN

HEUTE
Time Temp. Taup. r.Fe. Windrich Windstärke Windböe Druck 1h Prec. 24h Prec.
00:04 5.9 4.4 90 330 0.3 1.1 1005.6 0.0000 0.0000
00:14 5.9 4.4 90 300 0.8 1.1 1005.5 0.0000 0.0000
00:24 5.8 4.3 90 292 0.8 1.4 1005.5 0.0000 0.0000
00:35 5.7 4.2 90 308 0.3 1.1 1005.6 0.0000 0.0000
00:45 5.7 4.2 90 294 0.8 1.1 1005.6 0.0000 0.0000
00:54 5.6 4.1 90 297 0.8 1.1 1005.6 0.0000 0.0000
01:05 5.5 4 90 349 0.3 0.8 1005.7 0.0000 0.0000
01:15 5.5 4 90 324 0.3 0.8 1005.7 0.0000 0.0000
01:25 5.5 4 90 330 0.3 0.8 1005.8 0.0000 0.0000
01:35 5.4 3.9 90 18 0.3 1.1 1005.7 0.0000 0.0000
01:46 5.4 3.9 90 315 0.3 1.1 1005.8 0.0000 0.0000
01:55 5.4 3.9 90 8 0.3 0.8 1005.9 0.0000 0.0000
02:05 5.4 3.9 90 29 0.3 0.8 1006 0.0000 0.0000
02:16 5.3 3.8 90 10 0.3 0.8 1006 0.0000 0.0000
02:26 5.3 3.8 90 352 0.3 0.8 1006 0.0000 0.0000
02:36 5.3 3.8 90 336 0.3 1.1 1006 0.0000 0.0000
02:45 5.4 3.9 90 341 0.3 0.8 1006 0.0000 0.0000
02:56 5.3 3.8 90 25 0.3 1.1 1005.9 0.0000 0.0000
03:06 5.2 3.7 90 28 0.3 1.1 1006 0.0000 0.0000
03:16 5.1 3.6 90 0 0.3 1.1 1006 0.0000 0.0000
03:26 5.2 3.7 90 270 0.3 1.1 1006 0.0000 0.0000
03:37 5.2 3.7 90 270 0.3 0.8 1006.1 0.0000 0.0000
03:46 5.2 3.7 90 270 0.3 1.1 1006.2 0.0000 0.0000
03:56 5.2 3.7 90 239 0.8 1.4 1006.3 0.0000 0.0000
04:07 5.1 3.6 90 226 1.1 2.2 1006.4 0.0000 0.0000
04:17 5.1 3.6 90 227 1.7 2.2 1006.4 0.0000 0.0000
04:27 5.1 3.6 90 226 1.7 2.5 1006.5 0.0000 0.0000
04:37 5 3.5 90 231 1.7 2.5 1006.7 0.0000 0.0000
04:47 4.9 3.4 90 225 1.7 2.5 1006.8 0.0000 0.0000
04:57 4.8 3.3 90 226 1.4 2.5 1006.8 0.0000 0.0000
05:07 4.7 3.2 90 227 1.7 2.5 1006.9 0.0000 0.0000
05:18 4.6 3.1 90 227 1.7 2.5 1007 0.0000 0.0000
05:27 4.5 3 90 227 1.7 2.5 1007.1 0.0000 0.0000
05:37 4.4 2.9 90 228 1.7 2.8 1007.2 0.0000 0.0000
05:47 4.3 2.8 90 227 1.7 2.5 1007.2 0.0000 0.0000
05:58 4.2 2.7 90 223 1.7 2.8 1007.3 0.0000 0.0000
06:08 4.2 2.7 90 225 2.5 3.3 1007.3 0.0000 0.0000
06:17 4.1 2.6 90 227 2.2 2.8 1007.4 0.0000 0.0000
06:28 3.8 2.3 90 227 2.5 3.6 1007.5 0.0000 0.0000
06:38 3.7 2.2 90 227 2.5 3.3 1007.6 0.0000 0.0000
06:48 3.8 2.3 90 225 2.5 3.6 1007.7 0.0000 0.0000
06:58 3.9 2.4 90 225 2.5 3.9 1007.8 0.0000 0.0000
07:09 4.1 2.6 90 223 3.3 4.2 1007.9 0.0000 0.0000
07:18 4.3 2.8 90 224 3.3 4.2 1008 0.0000 0.0000
07:28 4.6 3.1 90 224 2.8 4.7 1008.1 0.0000 0.0000
07:39 4.8 3.3 90 223 3.6 5 1008.2 0.0000 0.0000
07:49 5.1 3.6 90 223 3.6 5.3 1008.4 0.0000 0.0000
07:58 5.3 3.8 90 223 3.9 5.3 1008.5 0.0000 0.0000
08:08 5.4 3.9 90 225 3.6 4.7 1008.6 0.0000 0.0000
08:19 5.5 4 90 223 3.6 5.8 1008.7 0.0000 0.0000
08:29 5.6 4.1 90 223 3.9 5.8 1008.7 0.0000 0.0000
08:39 5.7 4.2 90 223 3.9 5.3 1008.7 0.0000 0.0000
08:49 5.8 4.3 90 221 3.6 5.8 1008.9 0.0000 0.0000
08:59 5.9 4.4 90 216 3.9 6.1 1009 0.0000 0.0000
09:09 5.9 4.4 90 219 3.3 5.8 1009.1 0.0000 0.0000
09:19 6 4.5 90 217 2.8 4.7 1009.2 0.0000 0.0000
09:30 6 4.5 90 214 3.3 5 1009.3 0.0000 0.0000
09:38 6.1 4.6 90 208 3.3 5 1009.4 0.0000 0.0000
09:49 6.2 4.7 90 209 2.8 4.2 1009.5 0.0000 0.0000
10:00 6.3 4.8 90 206 2.5 3.9 1009.5 0.0000 0.0000
10:10 6.3 4.8 90 214 2.2 3.9 1009.7 0.0000 0.0000
10:20 6.4 4.9 90 209 2.5 3.9 1009.8 0.0000 0.0000
10:29 6.5 5 90 221 1.7 3.3 1009.8 0.0000 0.0000
10:40 6.6 5.1 90 205 2.5 3.3 1009.7 0.0000 0.0000
10:50 6.7 5.2 90 288 1.4 2.5 1009.8 0.0000 0.0000
11:00 6.7 5.2 90 295 1.7 2.5 1010 0.0000 0.0000
11:10 6.8 5.3 90 119 1.4 2.8 1010.1 0.0000 0.0000
11:20 6.8 5.3 90 230 1.4 2.5 1010.2 0.0000 0.0000
11:30 6.8 5.3 90 205 1.1 2.2 1010.2 0.0000 0.0000
11:40 6.9 5.4 90 193 1.1 2.2 1010.2 0.0000 0.0000
11:51 7 5.5 90 168 1.1 2.2 1010.3 0.0000 0.0000
12:01 7.1 5.6 90 190 1.1 2.2 1010.3 0.0000 0.0000
12:10 7.2 5.7 90 194 1.1 1.7 1010.4 0.0000 0.0000
12:21 7.2 5.7 90 29 1.4 2.5 1010.4 0.0000 0.0000
12:31 7.3 5.8 90 4 1.4 2.2 1010.4 0.0000 0.0000
12:41 7.3 5.8 90 90 0.3 1.1 1010.4 0.0000 0.0000
12:51 7.4 5.9 90 41 0.3 1.4 1010.3 0.0000 0.0000
13:01 7.5 6 90 49 1.4 2.2 1010.4 0.0000 0.0000
13:11 7.6 6.1 90 57 1.1 1.7 1010.4 0.0000 0.0000
13:21 7.8 6.3 90 58 1.1 2.2 1010.5 0.0000 0.0000
13:31 8 6.5 90 90 0.3 1.1 1010.5 0.0000 0.0000
13:42 8.3 6.8 90 0 0.8 1010.4 0.0000 0.0000
13:51 8.6 7.1 90 90 0.3 1.4 1010.4 0.0000 0.0000
14:01 8.9 7.4 90 90 0.3 1.1 1010.4 0.0000 0.0000
14:12 9.2 7.6 90 59 0.3 1.1 1010.3 0.0000 0.0000
14:22 9.5 7.9 90 90 0.3 1.4 1010.3 0.0000 0.0000
14:32 9.7 8.1 90 90 0.8 1.4 1010.3 0.0000 0.0000
14:42 9.9 8.3 90 90 0.3 1.1 1010.3 0.0000 0.0000
14:52 10.1 8.5 90 90 0.3 1.4 1010.3 0.0000 0.0000
15:02 10.3 8.7 90 135 0.3 1.4 1010.3 0.0000 0.0000
15:12 10.4 8.8 90 206 0.3 1.7 1010.3 0.0000 0.0000
15:23 10.4 8.8 90 90 0.3 1.1 1010.3 0.0000 0.0000
15:32 10.4 8.8 90 90 0.3 1.1 1010.3 0.0000 0.0000
15:42 10.4 8.8 90 146 0.3 1.1 1010.3 0.0000 0.0000
15:52 10.4 8.8 90 126 0.3 1.1 1010.3 0.0000 0.0000
16:03 10.5 8.9 90 90 0.3 1.1 1010.3 0.0000 0.0000
16:13 10.5 8.9 90 90 0.3 1.4 1010.4 0.0000 0.0000
16:22 10.5 8.9 90 206 0.3 1.1 1010.5 0.0000 0.0000
16:33 10.6 9 90 315 0.3 0.8 1010.5 0.0000 0.0000
16:43 10.6 9 90 0 0.3 1010.5 0.0000 0.0000
16:53 10.6 9 90 270 0.3 1.1 1010.5 0.0000 0.0000
17:03 10.5 8.9 90 0 0.8 1010.6 0.0000 0.0000
17:13 10.5 8.9 90 270 0.3 1.1 1010.7 0.0000 0.0000
17:23 10.4 8.8 90 270 0.3 1.4 1010.7 0.0000 0.0000
17:33 10.3 8.7 90 270 0.8 1.4 1010.8 0.0000 0.0000
17:44 10.2 8.6 90 225 0.3 0.8 1010.9 0.0000 0.0000
17:54 10.1 8.5 90 0 0.3 1011.1 0.0000 0.0000
18:04 10 8.4 90 270 0.3 1.1 1011.1 0.0000 0.0000
18:13 9.8 8.2 90 270 0.8 2.2 1011.1 0.0000 0.0000
18:24 9.7 8.1 90 0 0.8 1011.2 0.0000 0.0000
18:34 9.6 8 90 270 0.3 0.8 1011.3 0.0000 0.0000
18:44 9.5 7.9 90 0 0.8 1011.4 0.0000 0.0000
18:54 9.4 7.8 90 55 0.3 0.8 1011.6 0.0000 0.0000
19:04 9.3 7.7 90 90 0.3 1.1 1011.6 0.0000 0.0000
19:14 9.3 7.7 90 90 0.3 0.8 1011.7 0.0000 0.0000
19:24 9.3 7.7 90 90 0.3 0.8 1011.8 0.0000 0.0000
19:35 9.2 7.6 90 0 0.3 1011.8 0.0000 0.0000
19:45 9.2 7.6 90 56 0.3 0.8 1011.9 0.0000 0.0000
19:54 9.2 7.6 90 90 0.3 0.8 1011.9 0.0000 0.0000

TAGESSTATISTIK

2024-03-04
TEMPERATUR
MITTEL
7.0
MAXIMUM
10.6
16:33
MINIMUM
3.7
06:38
LUFTDRUCK
MITTEL
1008.8
MAXIMUM
1011.9
19:45
MINIMUM
1005.5
00:14
TAUPUNKT
MITTEL
5.5
MAXIMUM
9.0
16:33
MINIMUM
2.2
06:38
FEUCHTIGKEIT
MITTEL
90
MAXIMUM
90
00:04
MINIMUM
90
00:04
WINDSTÄRKE
MITTEL
1.2
MAXIMUM
3.9
07:58
WINDBÖE
MITTEL
2.1
MAXIMUM
6.1
08:59
WINDRICHTUNG
VORHERRSCHENDE
SW
38.7%
N
6.7
NO
9.2
O
13.4
SO
3.4
S
3.4
SW
38.7
W
10.1
NW
9.2
NIEDERSCHLAG
REGEN STUNDE
0.0
REGEN TAG
0.0
TEMPERATUR (°C)
MINIMUM
3.7
MAXIMUM
10.6
MITTEL
7.0
LUFTDRUCK (hpa)
MINIMUM
1005.5
MAXIMUM
1011.9
MITTEL
1008.8
MESSGERÄT